sensor_id;sensor_type;location;lat;lon;timestamp;temperature;humidity
13336;DHT22;6737;51.480;11.962;2023-10-08T00:01:52;17.80;99.90
13336;DHT22;6737;51.480;11.962;2023-10-08T00:04:21;17.80;99.90
13336;DHT22;6737;51.480;11.962;2023-10-08T00:06:47;17.80;99.90
13336;DHT22;6737;51.480;11.962;2023-10-08T00:09:14;17.70;99.90
13336;DHT22;6737;51.480;11.962;2023-10-08T00:11:40;17.70;99.90
13336;DHT22;6737;51.480;11.962;2023-10-08T00:14:07;17.70;99.90
13336;DHT22;6737;51.480;11.962;2023-10-08T00:16:36;17.60;99.90
13336;DHT22;6737;51.480;11.962;2023-10-08T00:19:08;17.60;99.90
13336;DHT22;6737;51.480;11.962;2023-10-08T00:21:36;17.60;99.90
13336;DHT22;6737;51.480;11.962;2023-10-08T00:24:03;17.50;99.90
13336;DHT22;6737;51.480;11.962;2023-10-08T00:26:33;17.50;99.90
13336;DHT22;6737;51.480;11.962;2023-10-08T00:29:05;17.40;99.90
13336;DHT22;6737;51.480;11.962;2023-10-08T00:31:33;17.40;99.90
13336;DHT22;6737;51.480;11.962;2023-10-08T00:34:07;17.40;99.90
13336;DHT22;6737;51.480;11.962;2023-10-08T00:36:37;17.40;99.90
13336;DHT22;6737;51.480;11.962;2023-10-08T00:39:04;17.40;99.90
13336;DHT22;6737;51.480;11.962;2023-10-08T00:41:34;17.40;99.90
13336;DHT22;6737;51.480;11.962;2023-10-08T00:43:59;17.40;99.90
13336;DHT22;6737;51.480;11.962;2023-10-08T00:46:26;17.40;99.90
13336;DHT22;6737;51.480;11.962;2023-10-08T00:48:57;17.40;99.90
13336;DHT22;6737;51.480;11.962;2023-10-08T00:51:25;17.40;99.90
13336;DHT22;6737;51.480;11.962;2023-10-08T00:53:56;17.40;99.90
13336;DHT22;6737;51.480;11.962;2023-10-08T00:56:28;17.40;99.90
13336;DHT22;6737;51.480;11.962;2023-10-08T00:59:12;17.30;99.90
13336;DHT22;6737;51.480;11.962;2023-10-08T01:01:43;17.20;99.90
13336;DHT22;6737;51.480;11.962;2023-10-08T01:04:20;16.80;99.90
13336;DHT22;6737;51.480;11.962;2023-10-08T01:06:55;16.40;99.90
13336;DHT22;6737;51.480;11.962;2023-10-08T01:09:28;16.10;99.90
13336;DHT22;6737;51.480;11.962;2023-10-08T01:12:14;15.90;99.90
13336;DHT22;6737;51.480;11.962;2023-10-08T01:14:58;15.50;99.90
13336;DHT22;6737;51.480;11.962;2023-10-08T01:17:42;15.40;99.90
13336;DHT22;6737;51.480;11.962;2023-10-08T01:20:24;15.30;99.90
13336;DHT22;6737;51.480;11.962;2023-10-08T01:23:05;15.20;99.90
13336;DHT22;6737;51.480;11.962;2023-10-08T01:25:41;15.00;99.90
13336;DHT22;6737;51.480;11.962;2023-10-08T01:28:09;15.00;99.90
13336;DHT22;6737;51.480;11.962;2023-10-08T01:30:44;14.80;99.90
13336;DHT22;6737;51.480;11.962;2023-10-08T01:33:12;14.40;99.90
13336;DHT22;6737;51.480;11.962;2023-10-08T01:35:42;14.20;99.90
13336;DHT22;6737;51.480;11.962;2023-10-08T01:38:08;14.20;99.90
13336;DHT22;6737;51.480;11.962;2023-10-08T01:40:40;14.10;99.90
13336;DHT22;6737;51.480;11.962;2023-10-08T01:43:06;14.10;99.90
13336;DHT22;6737;51.480;11.962;2023-10-08T01:45:36;14.20;99.90
13336;DHT22;6737;51.480;11.962;2023-10-08T01:48:07;14.10;99.90
13336;DHT22;6737;51.480;11.962;2023-10-08T01:50:36;14.00;99.90
13336;DHT22;6737;51.480;11.962;2023-10-08T01:53:02;14.00;99.90
13336;DHT22;6737;51.480;11.962;2023-10-08T01:55:33;13.90;99.90
13336;DHT22;6737;51.480;11.962;2023-10-08T01:58:13;14.00;99.90
13336;DHT22;6737;51.480;11.962;2023-10-08T02:00:42;13.90;99.90
13336;DHT22;6737;51.480;11.962;2023-10-08T02:03:12;13.80;99.90
13336;DHT22;6737;51.480;11.962;2023-10-08T02:05:42;13.80;99.90
13336;DHT22;6737;51.480;11.962;2023-10-08T02:08:09;13.80;99.90
13336;DHT22;6737;51.480;11.962;2023-10-08T02:10:37;13.80;99.90
13336;DHT22;6737;51.480;11.962;2023-10-08T02:13:04;13.80;99.90
13336;DHT22;6737;51.480;11.962;2023-10-08T02:15:30;13.70;99.90
13336;DHT22;6737;51.480;11.962;2023-10-08T02:17:56;13.70;99.90
13336;DHT22;6737;51.480;11.962;2023-10-08T02:20:24;13.70;99.90
13336;DHT22;6737;51.480;11.962;2023-10-08T02:22:50;13.60;99.90
13336;DHT22;6737;51.480;11.962;2023-10-08T02:25:16;13.50;99.90
13336;DHT22;6737;51.480;11.962;2023-10-08T02:27:42;13.40;99.90
13336;DHT22;6737;51.480;11.962;2023-10-08T02:30:08;13.50;99.90
13336;DHT22;6737;51.480;11.962;2023-10-08T02:32:36;13.50;99.90
13336;DHT22;6737;51.480;11.962;2023-10-08T02:35:09;13.50;99.90
13336;DHT22;6737;51.480;11.962;2023-10-08T02:37:37;13.50;99.90
13336;DHT22;6737;51.480;11.962;2023-10-08T02:40:09;13.40;99.90
13336;DHT22;6737;51.480;11.962;2023-10-08T02:42:57;13.30;99.90
13336;DHT22;6737;51.480;11.962;2023-10-08T02:45:27;13.30;99.90
13336;DHT22;6737;51.480;11.962;2023-10-08T02:47:54;13.30;99.90
13336;DHT22;6737;51.480;11.962;2023-10-08T02:50:20;13.30;99.90
13336;DHT22;6737;51.480;11.962;2023-10-08T02:52:49;13.40;99.90
13336;DHT22;6737;51.480;11.962;2023-10-08T02:55:16;13.30;99.90
13336;DHT22;6737;51.480;11.962;2023-10-08T02:58:02;13.20;99.90
13336;DHT22;6737;51.480;11.962;2023-10-08T03:00:29;13.20;99.90
13336;DHT22;6737;51.480;11.962;2023-10-08T03:02:57;13.20;99.90
13336;DHT22;6737;51.480;11.962;2023-10-08T03:05:23;13.10;99.90
13336;DHT22;6737;51.480;11.962;2023-10-08T03:07:54;13.20;99.90
13336;DHT22;6737;51.480;11.962;2023-10-08T03:10:20;13.10;99.90
13336;DHT22;6737;51.480;11.962;2023-10-08T03:12:47;13.10;99.90
13336;DHT22;6737;51.480;11.962;2023-10-08T03:15:15;13.00;99.90
13336;DHT22;6737;51.480;11.962;2023-10-08T03:18:00;12.90;99.90
13336;DHT22;6737;51.480;11.962;2023-10-08T03:20:35;13.00;99.90
13336;DHT22;6737;51.480;11.962;2023-10-08T03:23:09;13.00;99.90
13336;DHT22;6737;51.480;11.962;2023-10-08T03:25:55;13.00;99.90
13336;DHT22;6737;51.480;11.962;2023-10-08T03:28:35;13.00;99.90
13336;DHT22;6737;51.480;11.962;2023-10-08T03:31:01;12.90;99.90
13336;DHT22;6737;51.480;11.962;2023-10-08T03:33:36;12.90;99.90
13336;DHT22;6737;51.480;11.962;2023-10-08T03:36:06;12.80;99.90
13336;DHT22;6737;51.480;11.962;2023-10-08T03:38:39;12.90;99.90
13336;DHT22;6737;51.480;11.962;2023-10-08T03:41:25;12.80;99.90
13336;DHT22;6737;51.480;11.962;2023-10-08T03:43:56;12.90;99.90
13336;DHT22;6737;51.480;11.962;2023-10-08T03:46:32;12.80;99.90
13336;DHT22;6737;51.480;11.962;2023-10-08T03:49:10;12.80;99.90
13336;DHT22;6737;51.480;11.962;2023-10-08T03:52:02;12.60;99.90
13336;DHT22;6737;51.480;11.962;2023-10-08T03:54:29;12.50;99.90
13336;DHT22;6737;51.480;11.962;2023-10-08T03:57:02;12.40;99.90
13336;DHT22;6737;51.480;11.962;2023-10-08T03:59:33;12.40;99.90
13336;DHT22;6737;51.480;11.962;2023-10-08T04:02:05;12.40;99.90
13336;DHT22;6737;51.480;11.962;2023-10-08T04:04:47;12.40;99.90
13336;DHT22;6737;51.480;11.962;2023-10-08T04:07:21;12.40;99.90
13336;DHT22;6737;51.480;11.962;2023-10-08T04:10:00;12.40;99.90
13336;DHT22;6737;51.480;11.962;2023-10-08T04:12:36;12.30;99.90
13336;DHT22;6737;51.480;11.962;2023-10-08T04:15:06;12.20;99.90
13336;DHT22;6737;51.480;11.962;2023-10-08T04:17:38;12.30;99.90
13336;DHT22;6737;51.480;11.962;2023-10-08T04:20:11;12.40;99.90
13336;DHT22;6737;51.480;11.962;2023-10-08T04:22:55;12.30;99.90
13336;DHT22;6737;51.480;11.962;2023-10-08T04:25:21;12.40;99.90
13336;DHT22;6737;51.480;11.962;2023-10-08T04:27:47;12.30;99.90
13336;DHT22;6737;51.480;11.962;2023-10-08T04:30:16;12.30;99.90
13336;DHT22;6737;51.480;11.962;2023-10-08T04:32:42;12.40;99.90
13336;DHT22;6737;51.480;11.962;2023-10-08T04:35:08;12.30;99.90
13336;DHT22;6737;51.480;11.962;2023-10-08T04:37:40;12.20;99.90
13336;DHT22;6737;51.480;11.962;2023-10-08T04:40:07;12.10;99.90
13336;DHT22;6737;51.480;11.962;2023-10-08T04:42:42;12.10;99.90
13336;DHT22;6737;51.480;11.962;2023-10-08T04:45:11;12.10;99.90
13336;DHT22;6737;51.480;11.962;2023-10-08T04:47:42;12.10;99.90
13336;DHT22;6737;51.480;11.962;2023-10-08T04:50:08;12.10;99.90
13336;DHT22;6737;51.480;11.962;2023-10-08T04:52:44;12.10;99.90
13336;DHT22;6737;51.480;11.962;2023-10-08T04:55:25;12.00;99.90
13336;DHT22;6737;51.480;11.962;2023-10-08T04:57:55;12.10;99.90
13336;DHT22;6737;51.480;11.962;2023-10-08T05:00:21;12.20;99.90
13336;DHT22;6737;51.480;11.962;2023-10-08T05:03:07;12.10;99.90
13336;DHT22;6737;51.480;11.962;2023-10-08T05:05:45;12.10;99.90
13336;DHT22;6737;51.480;11.962;2023-10-08T05:08:30;12.00;99.90
13336;DHT22;6737;51.480;11.962;2023-10-08T05:11:10;12.10;99.90
13336;DHT22;6737;51.480;11.962;2023-10-08T05:14:02;12.10;99.90
13336;DHT22;6737;51.480;11.962;2023-10-08T05:16:32;12.10;99.90
13336;DHT22;6737;51.480;11.962;2023-10-08T05:19:09;12.10;99.90
13336;DHT22;6737;51.480;11.962;2023-10-08T05:22:03;12.00;99.90
13336;DHT22;6737;51.480;11.962;2023-10-08T05:24:48;11.90;99.90
13336;DHT22;6737;51.480;11.962;2023-10-08T05:27:40;11.90;99.90
13336;DHT22;6737;51.480;11.962;2023-10-08T05:30:16;11.80;99.90
13336;DHT22;6737;51.480;11.962;2023-10-08T05:32:43;11.80;99.90
13336;DHT22;6737;51.480;11.962;2023-10-08T05:35:28;11.80;99.90
13336;DHT22;6737;51.480;11.962;2023-10-08T05:38:19;11.70;99.90
13336;DHT22;6737;51.480;11.962;2023-10-08T05:41:14;11.70;99.90
13336;DHT22;6737;51.480;11.962;2023-10-08T05:43:53;11.70;99.90
13336;DHT22;6737;51.480;11.962;2023-10-08T05:46:38;11.70;99.90
13336;DHT22;6737;51.480;11.962;2023-10-08T05:49:19;11.60;99.90
13336;DHT22;6737;51.480;11.962;2023-10-08T05:51:57;11.60;99.90
13336;DHT22;6737;51.480;11.962;2023-10-08T05:54:24;11.50;99.90
13336;DHT22;6737;51.480;11.962;2023-10-08T05:57:06;11.50;99.90
13336;DHT22;6737;51.480;11.962;2023-10-08T05:59:39;11.40;99.90
13336;DHT22;6737;51.480;11.962;2023-10-08T06:02:39;11.40;99.90
13336;DHT22;6737;51.480;11.962;2023-10-08T06:05:11;11.30;99.90
13336;DHT22;6737;51.480;11.962;2023-10-08T06:07:38;11.40;99.90
13336;DHT22;6737;51.480;11.962;2023-10-08T06:10:22;11.30;99.90
13336;DHT22;6737;51.480;11.962;2023-10-08T06:13:11;11.30;99.90
13336;DHT22;6737;51.480;11.962;2023-10-08T06:15:56;11.40;99.90
13336;DHT22;6737;51.480;11.962;2023-10-08T06:18:23;11.50;99.90
13336;DHT22;6737;51.480;11.962;2023-10-08T06:20:53;11.50;99.90
13336;DHT22;6737;51.480;11.962;2023-10-08T06:23:25;11.50;99.90
13336;DHT22;6737;51.480;11.962;2023-10-08T06:25:54;11.50;99.90
13336;DHT22;6737;51.480;11.962;2023-10-08T06:28:26;11.50;99.90
13336;DHT22;6737;51.480;11.962;2023-10-08T06:30:54;11.30;99.90
13336;DHT22;6737;51.480;11.962;2023-10-08T06:33:22;11.30;99.90
13336;DHT22;6737;51.480;11.962;2023-10-08T06:35:48;11.30;99.90
13336;DHT22;6737;51.480;11.962;2023-10-08T06:38:52;11.20;99.90
13336;DHT22;6737;51.480;11.962;2023-10-08T06:41:18;11.20;99.90
13336;DHT22;6737;51.480;11.962;2023-10-08T06:43:45;11.20;99.90
13336;DHT22;6737;51.480;11.962;2023-10-08T06:46:43;11.20;99.90
13336;DHT22;6737;51.480;11.962;2023-10-08T06:49:09;11.10;99.90
13336;DHT22;6737;51.480;11.962;2023-10-08T06:51:39;11.20;99.90
13336;DHT22;6737;51.480;11.962;2023-10-08T06:54:07;11.10;99.90
13336;DHT22;6737;51.480;11.962;2023-10-08T06:56:36;11.10;99.90
13336;DHT22;6737;51.480;11.962;2023-10-08T06:59:02;11.20;99.90
13336;DHT22;6737;51.480;11.962;2023-10-08T07:01:29;11.20;99.90
13336;DHT22;6737;51.480;11.962;2023-10-08T07:04:27;11.20;99.90
13336;DHT22;6737;51.480;11.962;2023-10-08T07:06:52;11.30;99.90
13336;DHT22;6737;51.480;11.962;2023-10-08T07:09:19;11.30;99.90
13336;DHT22;6737;51.480;11.962;2023-10-08T07:11:52;11.30;99.90
13336;DHT22;6737;51.480;11.962;2023-10-08T07:14:25;11.20;99.90
13336;DHT22;6737;51.480;11.962;2023-10-08T07:16:56;11.20;99.90
13336;DHT22;6737;51.480;11.962;2023-10-08T07:19:25;11.30;99.90
13336;DHT22;6737;51.480;11.962;2023-10-08T07:22:00;11.30;99.90
13336;DHT22;6737;51.480;11.962;2023-10-08T07:24:29;11.20;99.90
13336;DHT22;6737;51.480;11.962;2023-10-08T07:26:56;11.10;99.90
13336;DHT22;6737;51.480;11.962;2023-10-08T07:29:22;11.10;99.90
13336;DHT22;6737;51.480;11.962;2023-10-08T07:31:48;11.00;99.90
13336;DHT22;6737;51.480;11.962;2023-10-08T07:34:19;11.00;99.90
13336;DHT22;6737;51.480;11.962;2023-10-08T07:36:53;10.90;99.90
13336;DHT22;6737;51.480;11.962;2023-10-08T07:39:21;10.90;99.90
13336;DHT22;6737;51.480;11.962;2023-10-08T07:41:51;11.00;99.90
13336;DHT22;6737;51.480;11.962;2023-10-08T07:44:16;11.00;99.90
13336;DHT22;6737;51.480;11.962;2023-10-08T07:46:54;11.10;99.90
13336;DHT22;6737;51.480;11.962;2023-10-08T07:49:20;11.00;99.90
13336;DHT22;6737;51.480;11.962;2023-10-08T07:51:49;11.10;99.90
13336;DHT22;6737;51.480;11.962;2023-10-08T07:54:19;11.10;99.90
13336;DHT22;6737;51.480;11.962;2023-10-08T07:56:48;11.00;99.90
13336;DHT22;6737;51.480;11.962;2023-10-08T07:59:14;10.90;99.90
13336;DHT22;6737;51.480;11.962;2023-10-08T08:01:43;11.00;99.90
13336;DHT22;6737;51.480;11.962;2023-10-08T08:04:12;11.10;99.90
13336;DHT22;6737;51.480;11.962;2023-10-08T08:06:51;11.10;99.90
13336;DHT22;6737;51.480;11.962;2023-10-08T08:09:18;11.10;99.90
13336;DHT22;6737;51.480;11.962;2023-10-08T08:11:49;11.10;99.90
13336;DHT22;6737;51.480;11.962;2023-10-08T08:14:16;11.10;99.90
13336;DHT22;6737;51.480;11.962;2023-10-08T08:16:51;11.20;99.90
13336;DHT22;6737;51.480;11.962;2023-10-08T08:19:17;11.30;99.90
13336;DHT22;6737;51.480;11.962;2023-10-08T08:21:49;11.40;99.90
13336;DHT22;6737;51.480;11.962;2023-10-08T08:24:18;11.40;99.90
13336;DHT22;6737;51.480;11.962;2023-10-08T08:26:58;11.30;99.90
13336;DHT22;6737;51.480;11.962;2023-10-08T08:29:27;11.30;99.90
13336;DHT22;6737;51.480;11.962;2023-10-08T08:31:55;11.30;99.90
13336;DHT22;6737;51.480;11.962;2023-10-08T08:34:23;11.30;99.90
13336;DHT22;6737;51.480;11.962;2023-10-08T08:36:49;11.40;99.90
13336;DHT22;6737;51.480;11.962;2023-10-08T08:39:18;11.50;99.90
13336;DHT22;6737;51.480;11.962;2023-10-08T08:42:00;11.30;99.90
13336;DHT22;6737;51.480;11.962;2023-10-08T08:44:32;11.40;99.90
13336;DHT22;6737;51.480;11.962;2023-10-08T08:47:00;11.40;99.90
13336;DHT22;6737;51.480;11.962;2023-10-08T08:49:35;11.40;99.90
13336;DHT22;6737;51.480;11.962;2023-10-08T08:52:03;11.60;99.90
13336;DHT22;6737;51.480;11.962;2023-10-08T08:54:30;11.60;99.90
13336;DHT22;6737;51.480;11.962;2023-10-08T08:57:03;11.80;99.90
13336;DHT22;6737;51.480;11.962;2023-10-08T08:59:59;11.60;99.90
13336;DHT22;6737;51.480;11.962;2023-10-08T09:02:25;11.70;99.90
13336;DHT22;6737;51.480;11.962;2023-10-08T09:04:51;11.80;99.90
13336;DHT22;6737;51.480;11.962;2023-10-08T09:07:20;11.80;99.90
13336;DHT22;6737;51.480;11.962;2023-10-08T09:09:47;11.80;99.90
13336;DHT22;6737;51.480;11.962;2023-10-08T09:12:18;11.90;99.90
13336;DHT22;6737;51.480;11.962;2023-10-08T09:14:46;11.90;99.90
13336;DHT22;6737;51.480;11.962;2023-10-08T09:17:13;11.90;99.90
13336;DHT22;6737;51.480;11.962;2023-10-08T09:19:41;11.80;99.90
13336;DHT22;6737;51.480;11.962;2023-10-08T09:22:10;11.90;99.90
13336;DHT22;6737;51.480;11.962;2023-10-08T09:24:40;12.00;99.90
13336;DHT22;6737;51.480;11.962;2023-10-08T09:27:07;12.00;99.90
13336;DHT22;6737;51.480;11.962;2023-10-08T09:29:35;12.00;99.90
13336;DHT22;6737;51.480;11.962;2023-10-08T09:32:10;12.10;99.90
13336;DHT22;6737;51.480;11.962;2023-10-08T09:34:36;12.20;99.90
13336;DHT22;6737;51.480;11.962;2023-10-08T09:37:02;12.20;99.90
13336;DHT22;6737;51.480;11.962;2023-10-08T09:39:30;12.20;99.90
13336;DHT22;6737;51.480;11.962;2023-10-08T09:42:01;12.10;99.90
13336;DHT22;6737;51.480;11.962;2023-10-08T09:44:28;12.10;99.90
13336;DHT22;6737;51.480;11.962;2023-10-08T09:47:12;12.10;99.90
13336;DHT22;6737;51.480;11.962;2023-10-08T09:52:12;12.20;99.90
13336;DHT22;6737;51.480;11.962;2023-10-08T09:55:15;12.30;99.90
13336;DHT22;6737;51.480;11.962;2023-10-08T09:57:36;12.30;99.90
13336;DHT22;6737;51.480;11.962;2023-10-08T10:00:05;12.40;99.90
13336;DHT22;6737;51.480;11.962;2023-10-08T10:02:37;12.50;99.90
13336;DHT22;6737;51.480;11.962;2023-10-08T10:05:03;12.60;99.90
13336;DHT22;6737;51.480;11.962;2023-10-08T10:07:31;12.50;99.90
13336;DHT22;6737;51.480;11.962;2023-10-08T10:09:57;12.50;99.90
13336;DHT22;6737;51.480;11.962;2023-10-08T10:12:27;12.50;99.90
13336;DHT22;6737;51.480;11.962;2023-10-08T10:14:55;12.60;99.90
13336;DHT22;6737;51.480;11.962;2023-10-08T10:17:22;12.60;99.90
13336;DHT22;6737;51.480;11.962;2023-10-08T10:20:00;12.70;99.90
13336;DHT22;6737;51.480;11.962;2023-10-08T10:22:34;12.80;99.90
13336;DHT22;6737;51.480;11.962;2023-10-08T10:25:01;12.80;99.90
13336;DHT22;6737;51.480;11.962;2023-10-08T10:30:26;12.80;99.90
13336;DHT22;6737;51.480;11.962;2023-10-08T10:32:55;12.70;99.90
13336;DHT22;6737;51.480;11.962;2023-10-08T10:35:25;12.70;99.90
13336;DHT22;6737;51.480;11.962;2023-10-08T10:37:55;12.70;99.90
13336;DHT22;6737;51.480;11.962;2023-10-08T10:40:29;12.70;99.90
13336;DHT22;6737;51.480;11.962;2023-10-08T10:43:06;12.80;99.90
13336;DHT22;6737;51.480;11.962;2023-10-08T10:45:41;12.80;99.90
13336;DHT22;6737;51.480;11.962;2023-10-08T10:48:13;12.90;99.90
13336;DHT22;6737;51.480;11.962;2023-10-08T10:50:50;13.00;99.90
13336;DHT22;6737;51.480;11.962;2023-10-08T10:53:38;13.00;99.90
13336;DHT22;6737;51.480;11.962;2023-10-08T10:56:18;13.20;99.90
13336;DHT22;6737;51.480;11.962;2023-10-08T10:58:47;13.20;99.90
13336;DHT22;6737;51.480;11.962;2023-10-08T11:01:29;13.20;99.90
13336;DHT22;6737;51.480;11.962;2023-10-08T11:04:10;13.30;99.90
13336;DHT22;6737;51.480;11.962;2023-10-08T11:06:46;13.20;99.90
13336;DHT22;6737;51.480;11.962;2023-10-08T11:09:13;13.20;99.90
13336;DHT22;6737;51.480;11.962;2023-10-08T11:11:52;13.20;99.90
13336;DHT22;6737;51.480;11.962;2023-10-08T11:14:20;13.10;99.90
13336;DHT22;6737;51.480;11.962;2023-10-08T11:16:50;13.10;99.90
13336;DHT22;6737;51.480;11.962;2023-10-08T11:19:19;13.10;99.90
13336;DHT22;6737;51.480;11.962;2023-10-08T11:21:50;13.00;99.90
13336;DHT22;6737;51.480;11.962;2023-10-08T11:24:30;13.00;99.90
13336;DHT22;6737;51.480;11.962;2023-10-08T11:27:02;12.80;99.90
13336;DHT22;6737;51.480;11.962;2023-10-08T11:29:48;12.90;99.90
13336;DHT22;6737;51.480;11.962;2023-10-08T11:32:16;12.80;99.90
13336;DHT22;6737;51.480;11.962;2023-10-08T11:34:47;12.80;99.90
13336;DHT22;6737;51.480;11.962;2023-10-08T11:37:32;12.80;99.90
13336;DHT22;6737;51.480;11.962;2023-10-08T11:40:02;12.80;99.90
13336;DHT22;6737;51.480;11.962;2023-10-08T11:42:56;12.80;99.90
13336;DHT22;6737;51.480;11.962;2023-10-08T11:45:25;12.90;99.90
13336;DHT22;6737;51.480;11.962;2023-10-08T11:48:06;13.00;99.90
13336;DHT22;6737;51.480;11.962;2023-10-08T11:50:38;13.10;99.90
13336;DHT22;6737;51.480;11.962;2023-10-08T11:53:05;13.30;99.90
13336;DHT22;6737;51.480;11.962;2023-10-08T11:55:35;13.30;99.90
13336;DHT22;6737;51.480;11.962;2023-10-08T11:58:03;13.40;99.90
13336;DHT22;6737;51.480;11.962;2023-10-08T12:00:45;13.50;99.90
13336;DHT22;6737;51.480;11.962;2023-10-08T12:03:11;13.50;99.90
13336;DHT22;6737;51.480;11.962;2023-10-08T12:05:38;13.60;99.90
13336;DHT22;6737;51.480;11.962;2023-10-08T12:08:28;13.70;99.90
13336;DHT22;6737;51.480;11.962;2023-10-08T12:10:54;13.80;99.90
13336;DHT22;6737;51.480;11.962;2023-10-08T12:13:20;13.80;99.90
13336;DHT22;6737;51.480;11.962;2023-10-08T12:15:54;13.80;99.90
13336;DHT22;6737;51.480;11.962;2023-10-08T12:18:38;13.80;99.90
13336;DHT22;6737;51.480;11.962;2023-10-08T12:21:09;13.90;99.90
13336;DHT22;6737;51.480;11.962;2023-10-08T12:23:41;14.00;99.90
13336;DHT22;6737;51.480;11.962;2023-10-08T12:26:09;14.00;99.90
13336;DHT22;6737;51.480;11.962;2023-10-08T12:28:36;14.10;99.90
13336;DHT22;6737;51.480;11.962;2023-10-08T12:31:02;14.10;99.90
13336;DHT22;6737;51.480;11.962;2023-10-08T12:33:29;14.20;99.90
13336;DHT22;6737;51.480;11.962;2023-10-08T12:35:58;14.20;99.90
13336;DHT22;6737;51.480;11.962;2023-10-08T12:38:25;14.30;99.90
13336;DHT22;6737;51.480;11.962;2023-10-08T12:40:54;14.40;99.90
13336;DHT22;6737;51.480;11.962;2023-10-08T12:43:20;14.40;99.90
13336;DHT22;6737;51.480;11.962;2023-10-08T12:45:51;14.50;99.90
13336;DHT22;6737;51.480;11.962;2023-10-08T12:50:50;14.50;99.90
13336;DHT22;6737;51.480;11.962;2023-10-08T12:53:26;14.50;99.90
13336;DHT22;6737;51.480;11.962;2023-10-08T12:56:05;14.50;99.90
13336;DHT22;6737;51.480;11.962;2023-10-08T12:58:36;14.50;99.90
13336;DHT22;6737;51.480;11.962;2023-10-08T13:01:07;14.50;99.90
13336;DHT22;6737;51.480;11.962;2023-10-08T13:03:36;14.50;99.90
13336;DHT22;6737;51.480;11.962;2023-10-08T13:06:23;14.40;99.90
13336;DHT22;6737;51.480;11.962;2023-10-08T13:08:57;14.30;99.90
13336;DHT22;6737;51.480;11.962;2023-10-08T13:11:27;14.30;99.90
13336;DHT22;6737;51.480;11.962;2023-10-08T13:13:59;14.40;99.90
13336;DHT22;6737;51.480;11.962;2023-10-08T13:16:27;14.40;99.90
13336;DHT22;6737;51.480;11.962;2023-10-08T13:19:03;14.40;99.90
13336;DHT22;6737;51.480;11.962;2023-10-08T13:21:29;14.40;99.90
13336;DHT22;6737;51.480;11.962;2023-10-08T13:23:57;14.40;99.90
13336;DHT22;6737;51.480;11.962;2023-10-08T13:26:26;14.50;99.90
13336;DHT22;6737;51.480;11.962;2023-10-08T13:28:57;14.40;99.90
13336;DHT22;6737;51.480;11.962;2023-10-08T13:31:24;14.30;99.90
13336;DHT22;6737;51.480;11.962;2023-10-08T13:33:51;14.30;99.90
13336;DHT22;6737;51.480;11.962;2023-10-08T13:36:18;14.30;99.90
13336;DHT22;6737;51.480;11.962;2023-10-08T13:38:44;14.30;99.90
13336;DHT22;6737;51.480;11.962;2023-10-08T13:41:12;14.30;99.90
13336;DHT22;6737;51.480;11.962;2023-10-08T13:43:53;14.30;99.90
13336;DHT22;6737;51.480;11.962;2023-10-08T13:46:20;14.30;99.90
13336;DHT22;6737;51.480;11.962;2023-10-08T13:48:49;14.30;99.90
13336;DHT22;6737;51.480;11.962;2023-10-08T13:51:17;14.20;99.90
13336;DHT22;6737;51.480;11.962;2023-10-08T13:54:04;14.20;99.90
13336;DHT22;6737;51.480;11.962;2023-10-08T13:56:35;14.10;99.90
13336;DHT22;6737;51.480;11.962;2023-10-08T13:59:03;14.10;99.90
13336;DHT22;6737;51.480;11.962;2023-10-08T14:01:32;14.10;99.90
13336;DHT22;6737;51.480;11.962;2023-10-08T14:04:01;14.10;99.90
13336;DHT22;6737;51.480;11.962;2023-10-08T14:06:36;14.10;99.90
13336;DHT22;6737;51.480;11.962;2023-10-08T14:09:03;14.10;99.90
13336;DHT22;6737;51.480;11.962;2023-10-08T14:11:38;14.10;99.90
13336;DHT22;6737;51.480;11.962;2023-10-08T14:14:04;14.10;99.90
13336;DHT22;6737;51.480;11.962;2023-10-08T14:16:37;14.10;99.90
13336;DHT22;6737;51.480;11.962;2023-10-08T14:19:10;14.10;99.90
13336;DHT22;6737;51.480;11.962;2023-10-08T14:21:41;14.10;99.90
13336;DHT22;6737;51.480;11.962;2023-10-08T14:24:20;14.00;99.90
13336;DHT22;6737;51.480;11.962;2023-10-08T14:26:47;14.00;99.90
13336;DHT22;6737;51.480;11.962;2023-10-08T14:29:20;14.00;99.90
13336;DHT22;6737;51.480;11.962;2023-10-08T14:31:46;14.00;99.90
13336;DHT22;6737;51.480;11.962;2023-10-08T14:34:17;13.90;99.90
13336;DHT22;6737;51.480;11.962;2023-10-08T14:36:50;14.00;99.90
13336;DHT22;6737;51.480;11.962;2023-10-08T14:39:35;14.00;99.90
13336;DHT22;6737;51.480;11.962;2023-10-08T14:42:19;13.90;99.90
13336;DHT22;6737;51.480;11.962;2023-10-08T14:45:04;13.80;99.90
13336;DHT22;6737;51.480;11.962;2023-10-08T14:47:40;13.80;99.90
13336;DHT22;6737;51.480;11.962;2023-10-08T14:50:07;13.80;99.90
13336;DHT22;6737;51.480;11.962;2023-10-08T14:52:43;13.80;99.90
13336;DHT22;6737;51.480;11.962;2023-10-08T14:55:09;13.80;99.90
13336;DHT22;6737;51.480;11.962;2023-10-08T14:57:37;13.70;99.90
13336;DHT22;6737;51.480;11.962;2023-10-08T15:00:03;13.70;99.90
13336;DHT22;6737;51.480;11.962;2023-10-08T15:02:31;13.80;99.90
13336;DHT22;6737;51.480;11.962;2023-10-08T15:04:59;13.80;99.90
13336;DHT22;6737;51.480;11.962;2023-10-08T15:07:27;13.80;99.90
13336;DHT22;6737;51.480;11.962;2023-10-08T15:09:54;13.80;99.90
13336;DHT22;6737;51.480;11.962;2023-10-08T15:12:23;13.70;99.90
13336;DHT22;6737;51.480;11.962;2023-10-08T15:14:51;13.70;99.90
13336;DHT22;6737;51.480;11.962;2023-10-08T15:17:18;13.70;99.90
13336;DHT22;6737;51.480;11.962;2023-10-08T15:19:44;13.60;99.90
13336;DHT22;6737;51.480;11.962;2023-10-08T15:22:12;13.50;99.90
13336;DHT22;6737;51.480;11.962;2023-10-08T15:24:38;13.40;99.90
13336;DHT22;6737;51.480;11.962;2023-10-08T15:27:06;13.50;99.90
13336;DHT22;6737;51.480;11.962;2023-10-08T15:29:32;13.40;99.90
13336;DHT22;6737;51.480;11.962;2023-10-08T15:31:59;13.50;99.90
13336;DHT22;6737;51.480;11.962;2023-10-08T15:34:25;13.40;99.90
13336;DHT22;6737;51.480;11.962;2023-10-08T15:36:55;13.40;99.90
13336;DHT22;6737;51.480;11.962;2023-10-08T15:39:21;13.40;99.90
13336;DHT22;6737;51.480;11.962;2023-10-08T15:41:50;13.40;99.90
13336;DHT22;6737;51.480;11.962;2023-10-08T15:44:17;13.40;99.90
13336;DHT22;6737;51.480;11.962;2023-10-08T15:46:47;13.40;99.90
13336;DHT22;6737;51.480;11.962;2023-10-08T15:49:13;13.40;99.90
13336;DHT22;6737;51.480;11.962;2023-10-08T15:51:39;13.40;99.90
13336;DHT22;6737;51.480;11.962;2023-10-08T15:54:06;13.40;99.90
13336;DHT22;6737;51.480;11.962;2023-10-08T15:56:32;13.40;99.90
13336;DHT22;6737;51.480;11.962;2023-10-08T15:58:58;13.40;99.90
13336;DHT22;6737;51.480;11.962;2023-10-08T16:01:24;13.30;99.90
13336;DHT22;6737;51.480;11.962;2023-10-08T16:03:53;13.30;99.90
13336;DHT22;6737;51.480;11.962;2023-10-08T16:06:19;13.30;99.90
13336;DHT22;6737;51.480;11.962;2023-10-08T16:08:48;13.30;99.90